WetterOnline ( https://www.wetteronline.de )

Wetter aktuell Bellavista

Aktuelles Wetter: Capo Bellavista (150m)

6-stündlich | Neueste Meldungen
Ortszeit Temperatur Wetter
Mo, 26.10. 19:00 18.0° C wolkig
Mo, 26.10. 13:00 21.8° C wolkenlos
Mo, 26.10. 7:00 15.0° C fast wolkenlos
Mo, 26.10. 1:00 16.0° C wolkenlos
So, 25.10. 19:00 17.8° C wolkenlos
So, 25.10. 13:00 22.4° C fast wolkenlos
So, 25.10. 7:00 14.6° C leicht bewölkt
So, 25.10. 2:00 16.8° C wolkenlos
Ortszeit Temperatur Wetter
Mo, 26.10. 20:00 18.0° C leicht bewölkt
Mo, 26.10. 19:55 18° C leicht bewölkt
Mo, 26.10. 19:00 18.0° C wolkig
Mo, 26.10. 18:55 18° C leicht bewölkt
Mo, 26.10. 18:00 20.0° C wolkig
Mo, 26.10. 17:55 20° C leicht bewölkt
Mo, 26.10. 17:00 21.8° C leicht bewölkt
Mo, 26.10. 16:55 22° C leicht bewölkt
Mo, 26.10. 16:00 23.0° C leicht bewölkt
Ortszeit Relative Feuchte Sichtweite
Mo, 26.10. 19:00 82% 20 km
Mo, 26.10. 13:00 80% 30 km
Mo, 26.10. 7:00 67% 30 km
Mo, 26.10. 1:00 61% 30 km
So, 25.10. 19:00 52% 30 km
So, 25.10. 13:00 40% 30 km
So, 25.10. 7:00 45% 20 km
So, 25.10. 2:00 37% 20 km
Ortszeit Relative Feuchte Sichtweite
Mo, 26.10. 20:00 73% 20 km
Mo, 26.10. 19:55 73% >10 km
Mo, 26.10. 19:00 82% 20 km
Mo, 26.10. 18:55 83% >10 km
Mo, 26.10. 18:00 70% 20 km
Mo, 26.10. 17:55 68% >10 km
Mo, 26.10. 17:00 51% 20 km
Mo, 26.10. 16:55 50% >10 km
Mo, 26.10. 16:00 44% 20 km
Ortszeit Niederschlagsmenge Niederschlagsart
Mo, 26.10. 19:00 0.0 l/m2 in 12 Std. -
Mo, 26.10. 13:00 0.0 l/m2 in 6 Std. -
Mo, 26.10. 7:00 0.0 l/m2 in 12 Std. -
Mo, 26.10. 1:00 0.0 l/m2 in 6 Std. -
So, 25.10. 19:00 0.0 l/m2 in 12 Std. -
So, 25.10. 13:00 0.0 l/m2 in 6 Std. -
So, 25.10. 7:00 0.0 l/m2 in 12 Std. -
So, 25.10. 2:00 0.0 l/m2 in 6 Std. -
Ortszeit Niederschlagsmenge Niederschlagsart
Mo, 26.10. 20:00 keine Meldung -
Mo, 26.10. 19:55 keine Meldung -
Mo, 26.10. 19:00 keine Meldung -
Mo, 26.10. 18:55 keine Meldung -
Mo, 26.10. 18:00 keine Meldung -
Mo, 26.10. 17:55 keine Meldung -
Mo, 26.10. 17:00 keine Meldung -
Mo, 26.10. 16:55 keine Meldung -
Mo, 26.10. 16:00 keine Meldung -
Ortszeit Stärke Spitze Richtung
km/h Bft. km/h Grad Sektor
Mo, 26.10. 19:00 28 4 - 260° W
Mo, 26.10. 13:00 37 5 - 200° S
Mo, 26.10. 7:00 17 3 - 280° W
Mo, 26.10. 1:00 11 2 - 330° NW
So, 25.10. 19:00 11 2 - 290° W
So, 25.10. 13:00 13 3 - 130° SO
So, 25.10. 7:00 17 3 - 300° NW
So, 25.10. 2:00 4 1 - 240° SW
Ortszeit Stärke Spitze Richtung
km/h Bft. km/h Grad Sektor
Mo, 26.10. 20:00 22 4 - 270° W
Mo, 26.10. 19:55 22 4 - 270° W
Mo, 26.10. 19:00 28 4 - 260° W
Mo, 26.10. 18:55 28 4 - 260° W
Mo, 26.10. 18:00 37 5 - 250° W
Mo, 26.10. 17:55 37 5 - 250° W
Mo, 26.10. 17:00 35 5 - 230° SW
Mo, 26.10. 16:55 35 5 - 230° SW
Mo, 26.10. 16:00 35 5 - 240° SW
Ortszeit Untergrenze Bedeckung Gattung
total tief tief mittel hoch
Mo, 26.10. 19:00 900 m 6/8 3/8 Cu Ac -
Mo, 26.10. 13:00 - 0/8 0/8 - - -
Mo, 26.10. 7:00 6000 m 1/8 1/8 - - Ci
Mo, 26.10. 1:00 - 0/8 0/8 - - -
So, 25.10. 19:00 - 0/8 0/8 - - -
So, 25.10. 13:00 1050 m 1/8 1/8 Cu - -
So, 25.10. 7:00 - 4/8 0/8 - - Ci
So, 25.10. 2:00 - 0/8 0/8 - - -
Ortszeit Bedeckungsgrad in Achtel und Wolkenuntergrenze
Mo, 26.10. 20:00 2(900m)
Mo, 26.10. 19:55 1-2(900m)
Mo, 26.10. 19:00 3(900m)
Mo, 26.10. 18:55 3-4(900m)
Mo, 26.10. 18:00 3(900m)
Mo, 26.10. 17:55 3-4(900m)
Mo, 26.10. 17:00 2(1200m)
Mo, 26.10. 16:55 1-2(1200m)
Mo, 26.10. 16:00 6
Ortszeit Luftdruck NN (hPa) Tendenz (hPa in 3 Std.)
Mo, 26.10. 19:00 1007 + 0,2
Mo, 26.10. 13:00 1009 - 2,8
Mo, 26.10. 7:00 1013 - 1,0
Mo, 26.10. 1:00 1015 - 0,4
So, 25.10. 19:00 1016 - 0,4
So, 25.10. 13:00 1017 - 0,3
So, 25.10. 7:00 1018 0,0
So, 25.10. 2:00 1019 - 0,1
Ortszeit Luftdruck NN (hPa) Tendenz (hPa in 3 Std.)
Mo, 26.10. 20:00 1008 + 1,0
Mo, 26.10. 19:55 1007 keine Meldung
Mo, 26.10. 19:00 1007 + 0,2
Mo, 26.10. 18:55 1007 keine Meldung
Mo, 26.10. 18:00 1006 - 1,4
Mo, 26.10. 17:55 1006 keine Meldung
Mo, 26.10. 17:00 1006 - 1,9
Mo, 26.10. 16:55 1006 keine Meldung
Mo, 26.10. 16:00 1007 - 2,3
Ortszeit Schneehöhe (cm)
Mo, 26.10. 19:00 -
Mo, 26.10. 13:00 -
Mo, 26.10. 7:00 0
Mo, 26.10. 1:00 -
So, 25.10. 19:00 -
So, 25.10. 13:00 -
So, 25.10. 7:00 -
So, 25.10. 2:00 -
Ortszeit Schneehöhe (cm)
Mo, 26.10. 20:00 -
Mo, 26.10. 19:55 -
Mo, 26.10. 19:00 -
Mo, 26.10. 18:55 -
Mo, 26.10. 18:00 -
Mo, 26.10. 17:55 -
Mo, 26.10. 17:00 -
Mo, 26.10. 16:55 -
Mo, 26.10. 16:00 -
Link zu dieser Seite / Seite empfehlen

Das Wetter in ...